Time;durP1;ratioP1;P1;durP2;ratioP2;P2;SDS_P1;SDS_P2;PMS_P1;PMS_P2;Temp;Humidity;BMP_temperature;BMP_pressure;BME280_temperature;BME280_humidity;BME280_pressure;Samples;Min_cycle;Max_cycle;Signal;HPM_P1;HPM_P2
2022/05/26 00:01:48;;;;;;;;;;;13.70;99.90;;;;;;5050220;28;19952;-72
2022/05/26 00:04:14;;;;;;;;;;;13.60;99.90;;;;;;5034379;28;19929;-72
2022/05/26 00:06:42;;;;;;;;;;;13.60;99.90;;;;;;5023556;28;19929;-72
2022/05/26 00:09:07;;;;;;;;;;;13.50;99.90;;;;;;5013508;28;19948;-72
2022/05/26 00:11:35;;;;;;;;;;;13.50;99.90;;;;;;5012842;28;20393;-72
2022/05/26 00:14:07;;;;;;;;;;;13.50;99.90;;;;;;5012922;28;20354;-72
2022/05/26 00:16:36;;;;;;;;;;;13.40;99.90;;;;;;5013395;28;19933;-72
2022/05/26 00:19:01;;;;;;;;;;;13.40;99.90;;;;;;5014628;28;19926;-72
2022/05/26 00:21:27;;;;;;;;;;;13.30;99.90;;;;;;5013314;28;20288;-72
2022/05/26 00:23:56;;;;;;;;;;;13.30;99.90;;;;;;5013610;28;19960;-72
2022/05/26 00:26:21;;;;;;;;;;;13.30;99.90;;;;;;5013311;28;19933;-72
2022/05/26 00:28:47;;;;;;;;;;;13.30;99.90;;;;;;5014197;28;19929;-72
2022/05/26 00:31:12;;;;;;;;;;;13.30;99.90;;;;;;5014194;28;19925;-72
2022/05/26 00:33:38;;;;;;;;;;;13.40;99.90;;;;;;5013498;28;19976;-72
2022/05/26 00:36:08;;;;;;;;;;;13.40;99.90;;;;;;5014307;28;19925;-72
2022/05/26 00:38:33;;;;;;;;;;;13.40;99.90;;;;;;5012229;28;19933;-72
2022/05/26 00:41:12;;;;;;;;;;;13.40;99.90;;;;;;5013414;28;20262;-72
2022/05/26 00:43:42;;;;;;;;;;;13.50;99.90;;;;;;5012660;28;19972;-72
2022/05/26 00:46:26;;;;;;;;;;;13.50;99.90;;;;;;5012340;28;20300;-72
2022/05/26 00:48:54;;;;;;;;;;;13.60;99.90;;;;;;5013225;28;19930;-72
2022/05/26 00:51:23;;;;;;;;;;;13.60;99.90;;;;;;5012595;28;19955;-72
2022/05/26 00:53:56;;;;;;;;;;;13.60;99.90;;;;;;5012732;28;19952;-72
2022/05/26 00:56:24;;;;;;;;;;;13.60;99.90;;;;;;5012587;28;20008;-72
2022/05/26 00:58:53;;;;;;;;;;;13.60;99.90;;;;;;5013736;28;20420;-72
2022/05/26 01:01:19;;;;;;;;;;;13.60;99.90;;;;;;5013874;28;19929;-72
2022/05/26 01:03:51;;;;;;;;;;;13.50;99.90;;;;;;5014011;28;20294;-72
2022/05/26 01:06:24;;;;;;;;;;;13.60;99.90;;;;;;5015756;28;20437;-72
2022/05/26 01:08:52;;;;;;;;;;;13.60;99.90;;;;;;5031831;28;19971;-72
2022/05/26 01:11:18;;;;;;;;;;;13.60;99.90;;;;;;5032745;28;19947;-72
2022/05/26 01:13:45;;;;;;;;;;;13.60;99.90;;;;;;5031436;28;20350;-72
2022/05/26 01:16:16;;;;;;;;;;;13.60;99.90;;;;;;5032620;28;19925;-72
2022/05/26 01:18:50;;;;;;;;;;;13.60;99.90;;;;;;5032761;28;19932;-72
2022/05/26 01:21:21;;;;;;;;;;;13.60;99.90;;;;;;5029688;28;19925;-72
2022/05/26 01:24:00;;;;;;;;;;;13.60;99.90;;;;;;5031658;28;19932;-72
2022/05/26 01:26:32;;;;;;;;;;;13.60;99.90;;;;;;5031982;28;19925;-72
2022/05/26 01:28:57;;;;;;;;;;;13.50;99.90;;;;;;5032759;28;19925;-72
2022/05/26 01:31:30;;;;;;;;;;;13.50;99.90;;;;;;5032077;28;19935;-73
2022/05/26 01:34:11;;;;;;;;;;;13.60;99.90;;;;;;5048732;28;19925;-72
2022/05/26 01:36:55;;;;;;;;;;;13.50;99.90;;;;;;5026602;28;19925;-72
2022/05/26 01:39:29;;;;;;;;;;;13.50;99.90;;;;;;5013128;28;20040;-72
2022/05/26 01:42:10;;;;;;;;;;;13.50;99.90;;;;;;5011725;28;19932;-72
2022/05/26 01:44:48;;;;;;;;;;;13.50;99.90;;;;;;5011535;28;19925;-72
2022/05/26 01:47:32;;;;;;;;;;;13.50;99.90;;;;;;5011724;28;19925;-72
2022/05/26 01:50:14;;;;;;;;;;;13.50;99.90;;;;;;5013269;28;19925;-72
2022/05/26 01:53:15;;;;;;;;;;;13.40;99.90;;;;;;5013000;28;19925;-72
2022/05/26 01:55:43;;;;;;;;;;;13.40;99.90;;;;;;4971592;28;19937;-72
2022/05/26 01:58:23;;;;;;;;;;;13.30;99.90;;;;;;5000869;28;19925;-72
2022/05/26 02:00:50;;;;;;;;;;;13.30;99.90;;;;;;5014408;28;19968;-72
2022/05/26 02:03:18;;;;;;;;;;;13.20;99.90;;;;;;5011316;28;20063;-72
2022/05/26 02:05:46;;;;;;;;;;;13.20;99.90;;;;;;5011019;28;20277;-72
2022/05/26 02:08:15;;;;;;;;;;;13.10;99.90;;;;;;5011094;28;20020;-72
2022/05/26 02:10:53;;;;;;;;;;;14.20;99.90;;;;;;5011262;28;20060;-72
2022/05/26 02:13:37;;;;;;;;;;;13.10;99.90;;;;;;5024445;28;20321;-70
2022/05/26 02:16:09;;;;;;;;;;;13.00;99.90;;;;;;5032434;28;19955;-70
2022/05/26 02:18:36;;;;;;;;;;;12.90;99.90;;;;;;5030072;28;19925;-70
2022/05/26 02:21:09;;;;;;;;;;;12.90;99.90;;;;;;5030789;28;20380;-70
2022/05/26 02:23:38;;;;;;;;;;;12.80;99.90;;;;;;5047468;28;19925;-70
2022/05/26 02:26:04;;;;;;;;;;;13.00;99.90;;;;;;5030513;28;20042;-70
2022/05/26 02:31:22;;;;;;;;;;;12.70;99.90;;;;;;5028357;28;19925;-70
2022/05/26 02:33:47;;;;;;;;;;;12.60;99.90;;;;;;5022553;28;20665;-71
2022/05/26 02:36:13;;;;;;;;;;;12.60;99.90;;;;;;5020192;28;20004;-71
2022/05/26 02:38:39;;;;;;;;;;;12.60;99.90;;;;;;5030053;28;19925;-70
2022/05/26 02:41:04;;;;;;;;;;;12.60;99.90;;;;;;5029975;28;19925;-70
2022/05/26 02:43:35;;;;;;;;;;;12.60;99.90;;;;;;5028770;28;19943;-71
2022/05/26 02:46:19;;;;;;;;;;;12.60;99.90;;;;;;5009506;28;20015;-71
2022/05/26 02:48:48;;;;;;;;;;;12.50;99.90;;;;;;5010369;28;19925;-71
2022/05/26 02:51:33;;;;;;;;;;;12.50;99.90;;;;;;5012726;28;19929;-71
2022/05/26 02:54:18;;;;;;;;;;;12.50;99.90;;;;;;5016559;28;19927;-71
2022/05/26 02:56:52;;;;;;;;;;;12.40;99.90;;;;;;5022414;28;19932;-71
2022/05/26 02:59:29;;;;;;;;;;;12.40;99.90;;;;;;5015159;28;20024;-71
2022/05/26 03:01:57;;;;;;;;;;;12.40;99.90;;;;;;5014820;28;20293;-70
2022/05/26 03:04:25;;;;;;;;;;;12.40;99.90;;;;;;5020654;28;19930;-71
2022/05/26 03:06:54;;;;;;;;;;;12.30;99.90;;;;;;5024284;28;19933;-70
2022/05/26 03:09:20;;;;;;;;;;;12.30;99.90;;;;;;5020667;28;20293;-70
2022/05/26 03:11:50;;;;;;;;;;;12.30;99.90;;;;;;5025598;28;19968;-70
2022/05/26 03:14:16;;;;;;;;;;;12.30;99.90;;;;;;5022352;28;19921;-71
2022/05/26 03:16:42;;;;;;;;;;;12.30;99.90;;;;;;5026554;28;20347;-71
2022/05/26 03:19:08;;;;;;;;;;;12.30;99.90;;;;;;5013633;28;19925;-71
2022/05/26 03:21:34;;;;;;;;;;;12.30;99.90;;;;;;5032734;28;19925;-71
2022/05/26 03:23:59;;;;;;;;;;;12.30;99.90;;;;;;5034226;28;20008;-70
2022/05/26 03:26:25;;;;;;;;;;;12.30;99.90;;;;;;5033950;28;20368;-71
2022/05/26 03:28:50;;;;;;;;;;;12.30;99.90;;;;;;5034381;28;19925;-70
2022/05/26 03:31:16;;;;;;;;;;;12.20;99.90;;;;;;5033735;28;19925;-71
2022/05/26 03:41:54;;;;;;;;;;;12.10;99.90;;;;;;5033197;28;19925;-70
2022/05/26 03:44:20;;;;;;;;;;;12.10;99.90;;;;;;5034266;28;19979;-71
2022/05/26 03:46:47;;;;;;;;;;;12.10;99.90;;;;;;5034035;28;20302;-71
2022/05/26 03:49:13;;;;;;;;;;;12.10;99.90;;;;;;5035087;28;19979;-71
2022/05/26 03:51:38;;;;;;;;;;;12.10;99.90;;;;;;5015406;28;19925;-71
2022/05/26 03:54:04;;;;;;;;;;;12.10;99.90;;;;;;5014549;28;19975;-71
2022/05/26 03:56:29;;;;;;;;;;;12.10;99.90;;;;;;5013832;28;19933;-70
2022/05/26 03:58:55;;;;;;;;;;;12.10;99.90;;;;;;5014496;28;19932;-70
2022/05/26 04:01:22;;;;;;;;;;;12.10;99.90;;;;;;5013659;28;19925;-70
2022/05/26 04:03:50;;;;;;;;;;;12.10;99.90;;;;;;5014292;28;19925;-71
2022/05/26 04:06:16;;;;;;;;;;;12.00;99.90;;;;;;5027564;28;19925;-71
2022/05/26 04:08:41;;;;;;;;;;;12.00;99.90;;;;;;5034209;28;19951;-70
2022/05/26 04:11:07;;;;;;;;;;;12.00;99.90;;;;;;5032908;28;20575;-71
2022/05/26 04:13:32;;;;;;;;;;;12.00;99.90;;;;;;5031855;28;20058;-71
2022/05/26 04:15:58;;;;;;;;;;;12.00;99.90;;;;;;5033563;28;19959;-70
2022/05/26 04:18:23;;;;;;;;;;;12.00;99.90;;;;;;5031974;28;19925;-70
2022/05/26 04:20:49;;;;;;;;;;;12.90;99.90;;;;;;5020911;28;19925;-71
2022/05/26 04:23:14;;;;;;;;;;;12.00;99.90;;;;;;5014028;28;19928;-71
2022/05/26 04:25:43;;;;;;;;;;;12.00;99.90;;;;;;5014115;28;19933;-71
2022/05/26 04:28:08;;;;;;;;;;;12.00;99.90;;;;;;5013824;28;20304;-70
2022/05/26 04:30:34;;;;;;;;;;;12.10;99.90;;;;;;5013905;28;19921;-71
2022/05/26 04:32:59;;;;;;;;;;;12.10;99.90;;;;;;5013742;28;20025;-71
2022/05/26 04:35:28;;;;;;;;;;;12.10;99.90;;;;;;5020847;28;19929;-71
2022/05/26 04:37:53;;;;;;;;;;;12.20;99.90;;;;;;5033861;28;19925;-71
2022/05/26 04:40:19;;;;;;;;;;;12.20;99.90;;;;;;5031691;28;20380;-70
2022/05/26 04:42:44;;;;;;;;;;;12.30;99.90;;;;;;5032442;28;19932;-71
2022/05/26 04:45:12;;;;;;;;;;;12.40;99.90;;;;;;5033546;28;20024;-71
2022/05/26 04:47:38;;;;;;;;;;;12.40;99.90;;;;;;5032004;28;19929;-71
2022/05/26 04:50:03;;;;;;;;;;;12.50;99.90;;;;;;5028103;28;19925;-70
2022/05/26 04:52:29;;;;;;;;;;;12.60;99.90;;;;;;5012452;28;20017;-70
2022/05/26 04:54:57;;;;;;;;;;;12.60;99.90;;;;;;5012327;28;19925;-70
2022/05/26 04:57:24;;;;;;;;;;;12.70;99.90;;;;;;5011826;28;19925;-71
2022/05/26 04:59:50;;;;;;;;;;;12.70;99.90;;;;;;5013773;28;19925;-70
2022/05/26 05:02:17;;;;;;;;;;;12.80;99.90;;;;;;5011884;28;19926;-71
2022/05/26 05:04:44;;;;;;;;;;;12.80;99.90;;;;;;5013738;28;20369;-70
2022/05/26 05:07:12;;;;;;;;;;;12.90;99.90;;;;;;5031618;28;19929;-71
2022/05/26 05:09:38;;;;;;;;;;;12.90;99.90;;;;;;5033251;28;20372;-70
2022/05/26 05:12:04;;;;;;;;;;;12.90;99.90;;;;;;5031806;28;20712;-70
2022/05/26 05:14:32;;;;;;;;;;;13.00;99.90;;;;;;5032946;28;20002;-70
2022/05/26 05:16:57;;;;;;;;;;;13.00;99.90;;;;;;5015831;28;19925;-71
2022/05/26 05:19:23;;;;;;;;;;;13.00;99.90;;;;;;5012980;28;19932;-70
2022/05/26 05:21:51;;;;;;;;;;;13.10;99.90;;;;;;5013003;28;20336;-70
2022/05/26 05:24:28;;;;;;;;;;;13.10;99.90;;;;;;4995441;28;19926;-70
2022/05/26 05:26:57;;;;;;;;;;;13.20;99.90;;;;;;4991710;28;20069;-70
2022/05/26 05:29:24;;;;;;;;;;;13.90;99.90;;;;;;4992033;28;20117;-71
2022/05/26 05:31:52;;;;;;;;;;;13.30;99.90;;;;;;4993495;28;19928;-70
2022/05/26 05:34:31;;;;;;;;;;;13.30;99.90;;;;;;4995568;28;21410;-71
2022/05/26 05:36:58;;;;;;;;;;;13.40;99.90;;;;;;4998347;28;19926;-70
2022/05/26 05:39:24;;;;;;;;;;;14.60;99.90;;;;;;4981651;28;19925;-71
2022/05/26 05:41:50;;;;;;;;;;;13.40;99.90;;;;;;4983343;28;20294;-71
2022/05/26 05:44:16;;;;;;;;;;;13.50;99.90;;;;;;4975450;28;19926;-71
2022/05/26 05:46:57;;;;;;;;;;;13.60;99.90;;;;;;4993777;28;19989;-71
2022/05/26 05:49:27;;;;;;;;;;;13.60;99.90;;;;;;4992887;28;19956;-70
2022/05/26 05:51:53;;;;;;;;;;;13.60;99.90;;;;;;4993883;28;19941;-71
2022/05/26 05:54:19;;;;;;;;;;;13.60;99.90;;;;;;4991977;28;19929;-71
2022/05/26 05:56:46;;;;;;;;;;;13.70;99.90;;;;;;4992907;28;19926;-71
2022/05/26 05:59:14;;;;;;;;;;;13.70;99.90;;;;;;4989599;28;20316;-71
2022/05/26 06:01:40;;;;;;;;;;;13.80;99.90;;;;;;5012441;28;19932;-71
2022/05/26 06:04:06;;;;;;;;;;;13.80;99.90;;;;;;4994544;28;20397;-71
2022/05/26 06:06:39;;;;;;;;;;;13.90;99.90;;;;;;5012493;28;19933;-71
2022/05/26 06:09:05;;;;;;;;;;;14.00;99.90;;;;;;5012426;28;19926;-71
2022/05/26 06:11:31;;;;;;;;;;;14.10;99.90;;;;;;4994642;28;20309;-71
2022/05/26 06:14:03;;;;;;;;;;;14.20;99.90;;;;;;5010930;28;19929;-71
2022/05/26 06:16:29;;;;;;;;;;;14.30;99.90;;;;;;4994696;28;19929;-72
2022/05/26 06:18:54;;;;;;;;;;;14.30;99.90;;;;;;5026240;28;19925;-72
2022/05/26 06:21:20;;;;;;;;;;;14.30;99.90;;;;;;5028923;28;19940;-72
2022/05/26 06:23:45;;;;;;;;;;;14.50;99.90;;;;;;5047718;28;19929;-72
2022/05/26 06:26:14;;;;;;;;;;;14.60;99.90;;;;;;5031403;28;19971;-71
2022/05/26 06:31:23;;;;;;;;;;;14.80;99.90;;;;;;5031775;28;19926;-71
2022/05/26 06:39:21;;;;;;;;;;;15.30;99.90;;;;;;5035127;28;19925;-72
2022/05/26 06:42:05;;;;;;;;;;;15.40;99.90;;;;;;5026598;28;19933;-71
2022/05/26 06:44:42;;;;;;;;;;;15.40;99.90;;;;;;5014685;28;19925;-71
2022/05/26 06:47:15;;;;;;;;;;;15.50;99.90;;;;;;5014319;28;19931;-71
2022/05/26 06:49:41;;;;;;;;;;;15.50;99.90;;;;;;5014738;28;19965;-71
2022/05/26 06:52:07;;;;;;;;;;;15.50;99.90;;;;;;5027348;28;20411;-71
2022/05/26 06:54:36;;;;;;;;;;;15.60;99.90;;;;;;5025005;28;20315;-71
2022/05/26 06:57:02;;;;;;;;;;;15.70;99.90;;;;;;5015209;28;20397;-71
2022/05/26 06:59:27;;;;;;;;;;;15.80;99.90;;;;;;5014222;28;20403;-71
2022/05/26 07:01:53;;;;;;;;;;;16.00;99.90;;;;;;5021070;28;19979;-71
2022/05/26 07:04:19;;;;;;;;;;;16.00;99.90;;;;;;5033364;28;19979;-71
2022/05/26 07:06:47;;;;;;;;;;;15.90;99.90;;;;;;5033919;28;19984;-72
2022/05/26 07:09:13;;;;;;;;;;;15.90;99.90;;;;;;5026020;28;19929;-72
2022/05/26 07:11:38;;;;;;;;;;;15.90;99.90;;;;;;5013587;28;19972;-71
2022/05/26 07:14:04;;;;;;;;;;;15.90;99.90;;;;;;5013908;28;20385;-72
2022/05/26 07:16:29;;;;;;;;;;;16.00;99.90;;;;;;5024354;28;19929;-73
2022/05/26 07:18:55;;;;;;;;;;;16.00;99.90;;;;;;5021936;28;19926;-72
2022/05/26 07:21:21;;;;;;;;;;;16.20;99.90;;;;;;5014038;28;19933;-74
2022/05/26 07:23:49;;;;;;;;;;;16.10;99.90;;;;;;5030133;28;19926;-72
2022/05/26 07:26:16;;;;;;;;;;;16.20;99.90;;;;;;5025286;28;19926;-73
2022/05/26 07:28:41;;;;;;;;;;;16.20;99.90;;;;;;5014728;28;19933;-73
2022/05/26 07:31:08;;;;;;;;;;;16.70;99.90;;;;;;5021215;28;19925;-75
2022/05/26 07:33:34;;;;;;;;;;;17.30;99.90;;;;;;5025727;28;20271;-76
2022/05/26 07:35:59;;;;;;;;;;;17.80;99.90;;;;;;5019628;28;19929;-71
2022/05/26 07:41:23;;;;;;;;;;;17.60;99.90;;;;;;5013604;28;20379;-74
2022/05/26 07:43:52;;;;;;;;;;;17.30;99.90;;;;;;5024787;28;20312;-73
2022/05/26 07:46:20;;;;;;;;;;;17.00;99.90;;;;;;5027134;28;20036;-73
2022/05/26 07:48:46;;;;;;;;;;;16.90;99.90;;;;;;5022405;28;19936;-74
2022/05/26 07:51:12;;;;;;;;;;;16.90;99.90;;;;;;5023569;28;19925;-76
2022/05/26 07:53:37;;;;;;;;;;;16.90;99.90;;;;;;5022739;28;19926;-74
2022/05/26 07:56:03;;;;;;;;;;;17.00;99.90;;;;;;5013640;28;19933;-73
2022/05/26 07:58:29;;;;;;;;;;;17.10;99.90;;;;;;5015098;28;20008;-72
2022/05/26 08:00:54;;;;;;;;;;;17.10;99.90;;;;;;5015081;28;19988;-73
2022/05/26 08:03:21;;;;;;;;;;;17.40;99.90;;;;;;5033457;28;19925;-71
2022/05/26 08:05:49;;;;;;;;;;;17.60;99.90;;;;;;5034436;28;19935;-77
2022/05/26 08:08:15;;;;;;;;;;;18.40;99.90;;;;;;5034327;28;20459;-77
2022/05/26 08:10:40;;;;;;;;;;;18.90;99.90;;;;;;5031372;28;19964;-78
2022/05/26 08:13:06;;;;;;;;;;;19.30;99.90;;;;;;5032805;28;20396;-73
2022/05/26 08:15:32;;;;;;;;;;;19.30;99.90;;;;;;5033283;28;19925;-74
2022/05/26 08:17:58;;;;;;;;;;;19.40;99.90;;;;;;5033367;28;19925;-71
2022/05/26 08:20:26;;;;;;;;;;;19.10;99.90;;;;;;5032783;28;20376;-68
2022/05/26 08:22:52;;;;;;;;;;;18.90;99.30;;;;;;5032358;28;19972;-71
2022/05/26 08:25:17;;;;;;;;;;;19.00;99.80;;;;;;5032028;28;19929;-69
2022/05/26 08:27:43;;;;;;;;;;;19.10;99.90;;;;;;5031233;28;19925;-70
2022/05/26 08:30:28;;;;;;;;;;;19.10;99.90;;;;;;5032715;28;20385;-75
2022/05/26 08:32:55;;;;;;;;;;;19.10;99.90;;;;;;5032140;28;20383;-73
2022/05/26 08:35:21;;;;;;;;;;;18.90;99.90;;;;;;5033454;28;19925;-78
2022/05/26 08:37:47;;;;;;;;;;;18.70;99.90;;;;;;5030904;28;20016;-74
2022/05/26 08:40:27;;;;;;;;;;;18.70;99.90;;;;;;5032009;28;20433;-74
2022/05/26 08:42:53;;;;;;;;;;;18.70;99.90;;;;;;5032638;28;19929;-74
2022/05/26 08:45:18;;;;;;;;;;;18.70;99.90;;;;;;5033259;28;20025;-74
2022/05/26 08:47:45;;;;;;;;;;;18.90;99.90;;;;;;5033847;28;19926;-75
2022/05/26 08:50:26;;;;;;;;;;;19.30;99.90;;;;;;5015434;28;19933;-79
2022/05/26 08:53:12;;;;;;;;;;;19.90;99.90;;;;;;5012757;28;19965;-74
2022/05/26 08:55:42;;;;;;;;;;;20.50;99.30;;;;;;5009468;28;19926;-76
2022/05/26 08:58:07;;;;;;;;;;;21.00;98.30;;;;;;5014287;28;19933;-81
2022/05/26 09:00:34;;;;;;;;;;;21.50;98.50;;;;;;5016021;28;19925;-79
2022/05/26 09:03:00;;;;;;;;;;;21.90;96.60;;;;;;5017070;28;20304;-76
2022/05/26 09:05:29;;;;;;;;;;;22.20;96.40;;;;;;5035757;28;19925;-78
2022/05/26 09:13:46;;;;;;;;;;;23.00;95.80;;;;;;5009737;28;19976;-73
2022/05/26 09:16:12;;;;;;;;;;;23.20;94.90;;;;;;5015443;28;19961;-77
2022/05/26 09:18:41;;;;;;;;;;;23.20;94.60;;;;;;5012990;28;19980;-81
2022/05/26 09:21:16;;;;;;;;;;;22.90;94.80;;;;;;5011409;28;19960;-77
2022/05/26 09:23:44;;;;;;;;;;;22.60;95.50;;;;;;5012015;28;19968;-78
2022/05/26 09:26:11;;;;;;;;;;;22.10;95.10;;;;;;5011608;28;20020;-76
2022/05/26 09:28:37;;;;;;;;;;;21.30;96.40;;;;;;5025796;28;19929;-75
2022/05/26 09:31:16;;;;;;;;;;;21.60;97.40;;;;;;5021778;28;19929;-77
2022/05/26 09:33:42;;;;;;;;;;;22.30;97.80;;;;;;5011299;28;20020;-78
2022/05/26 09:36:36;;;;;;;;;;;22.80;96.70;;;;;;5014034;28;20024;-78
2022/05/26 09:39:05;;;;;;;;;;;23.10;95.90;;;;;;4998840;28;19969;-77
2022/05/26 09:41:45;;;;;;;;;;;23.10;96.10;;;;;;5010910;28;19937;-78
2022/05/26 09:46:54;;;;;;;;;;;23.20;95.90;;;;;;5133839;23;19929;-81
2022/05/26 09:49:23;;;;;;;;;;;22.30;96.90;;;;;;5013014;28;19929;-74
2022/05/26 09:51:49;;;;;;;;;;;22.20;97.70;;;;;;5030980;28;19921;-75
2022/05/26 09:54:29;;;;;;;;;;;22.00;97.40;;;;;;5044058;28;19925;-77
2022/05/26 09:56:55;;;;;;;;;;;21.90;97.70;;;;;;5034117;28;19925;-74
2022/05/26 09:59:24;;;;;;;;;;;21.80;97.10;;;;;;5034307;28;20372;-75
2022/05/26 10:01:52;;;;;;;;;;;21.80;97.50;;;;;;5033667;28;20304;-71
2022/05/26 10:04:37;;;;;;;;;;;21.80;97.70;;;;;;5050040;28;19932;-72
2022/05/26 10:07:08;;;;;;;;;;;21.90;98.20;;;;;;5051861;28;19936;-71
2022/05/26 10:09:42;;;;;;;;;;;22.40;98.60;;;;;;5051562;28;19924;-72
2022/05/26 10:12:12;;;;;;;;;;;22.90;98.60;;;;;;5023897;28;19975;-71
2022/05/26 10:14:38;;;;;;;;;;;23.10;97.50;;;;;;5031941;28;20008;-74
2022/05/26 10:17:09;;;;;;;;;;;23.10;96.60;;;;;;5044985;28;19925;-71
2022/05/26 10:19:53;;;;;;;;;;;22.50;96.50;;;;;;5013982;28;19977;-72
2022/05/26 10:22:19;;;;;;;;;;;22.40;96.10;;;;;;5025095;28;20519;-72
2022/05/26 10:24:55;;;;;;;;;;;21.80;97.10;;;;;;5050405;28;19929;-71
2022/05/26 10:27:44;;;;;;;;;;;21.50;97.20;;;;;;5031313;28;20011;-72
2022/05/26 10:30:28;;;;;;;;;;;21.30;98.30;;;;;;5040811;28;19931;-72
2022/05/26 10:33:15;;;;;;;;;;;21.60;99.30;;;;;;5050652;28;19925;-71
2022/05/26 10:36:01;;;;;;;;;;;21.60;99.20;;;;;;5050571;28;19925;-71
2022/05/26 10:38:45;;;;;;;;;;;22.00;99.00;;;;;;5017186;28;20332;-72
2022/05/26 10:41:26;;;;;;;;;;;22.30;98.30;;;;;;5051765;28;19964;-72
2022/05/26 10:43:57;;;;;;;;;;;21.90;97.30;;;;;;5033823;28;19978;-72
2022/05/26 10:46:26;;;;;;;;;;;21.90;98.20;;;;;;5044722;28;19972;-73
2022/05/26 10:49:10;;;;;;;;;;;22.20;97.90;;;;;;5047303;28;19932;-71
2022/05/26 10:51:41;;;;;;;;;;;22.00;98.10;;;;;;5050566;28;19943;-72
2022/05/26 10:54:21;;;;;;;;;;;22.20;97.40;;;;;;5031772;28;19925;-71
2022/05/26 10:56:46;;;;;;;;;;;22.00;97.60;;;;;;5023656;28;20547;-71
2022/05/26 10:59:25;;;;;;;;;;;21.90;98.30;;;;;;5013410;28;19969;-72
2022/05/26 11:01:56;;;;;;;;;;;22.30;99.00;;;;;;5038126;28;19928;-72
2022/05/26 11:04:31;;;;;;;;;;;22.40;97.70;;;;;;5033095;28;19925;-72
2022/05/26 11:07:01;;;;;;;;;;;22.60;98.10;;;;;;5051006;28;19924;-71
2022/05/26 11:09:34;;;;;;;;;;;22.40;97.20;;;;;;5021984;28;20396;-73
2022/05/26 11:12:01;;;;;;;;;;;22.20;97.50;;;;;;5047569;28;19983;-72
2022/05/26 11:17:37;;;;;;;;;;;22.00;97.70;;;;;;5042277;28;20455;-74
2022/05/26 11:20:07;;;;;;;;;;;21.90;97.90;;;;;;5013353;28;20320;-73
2022/05/26 11:22:33;;;;;;;;;;;21.80;97.20;;;;;;5014672;28;19936;-72
2022/05/26 11:24:59;;;;;;;;;;;21.50;97.50;;;;;;5017296;28;19926;-71
2022/05/26 11:27:39;;;;;;;;;;;21.80;98.10;;;;;;5014393;28;20292;-72
2022/05/26 11:36:07;;;;;;;;;;;21.80;97.90;;;;;;5019099;28;20016;-73
2022/05/26 11:38:32;;;;;;;;;;;22.00;96.00;;;;;;5017931;28;19926;-73
2022/05/26 11:41:00;;;;;;;;;;;21.90;96.90;;;;;;5034880;28;19925;-73
2022/05/26 11:43:29;;;;;;;;;;;21.90;97.00;;;;;;5017191;28;19948;-72
2022/05/26 11:45:55;;;;;;;;;;;21.60;97.20;;;;;;5022900;28;19931;-71
2022/05/26 11:48:30;;;;;;;;;;;21.80;97.50;;;;;;5034580;28;19932;-73
2022/05/26 11:50:59;;;;;;;;;;;21.30;97.30;;;;;;5033814;28;20380;-74
2022/05/26 11:53:28;;;;;;;;;;;21.40;97.80;;;;;;5054230;28;19932;-77
2022/05/26 11:55:54;;;;;;;;;;;21.70;98.10;;;;;;5054189;28;19971;-78
2022/05/26 11:58:20;;;;;;;;;;;21.80;97.60;;;;;;5036394;28;19929;-74
2022/05/26 12:00:46;;;;;;;;;;;21.90;97.30;;;;;;5054190;28;19951;-73
2022/05/26 12:03:21;;;;;;;;;;;21.80;97.80;;;;;;5028751;28;19925;-72
2022/05/26 12:05:48;;;;;;;;;;;21.80;96.80;;;;;;5054073;28;19936;-72
2022/05/26 12:08:34;;;;;;;;;;;21.60;97.50;;;;;;5053695;28;19924;-74
2022/05/26 12:11:01;;;;;;;;;;;21.40;96.70;;;;;;5033868;28;19956;-73
2022/05/26 12:13:28;;;;;;;;;;;21.30;97.30;;;;;;5053335;28;20015;-73
2022/05/26 12:16:18;;;;;;;;;;;21.00;97.10;;;;;;5038845;28;19925;-73
2022/05/26 12:18:58;;;;;;;;;;;21.00;97.50;;;;;;5038000;28;20031;-72
2022/05/26 12:21:27;;;;;;;;;;;20.70;96.80;;;;;;5054016;28;19924;-71
2022/05/26 12:23:53;;;;;;;;;;;20.90;97.40;;;;;;5053248;28;19935;-70
2022/05/26 12:26:40;;;;;;;;;;;21.00;97.30;;;;;;5032539;28;20024;-74
2022/05/26 12:29:24;;;;;;;;;;;21.00;97.80;;;;;;5033958;28;19929;-70
2022/05/26 12:32:10;;;;;;;;;;;21.20;97.80;;;;;;5033867;28;19921;-73
2022/05/26 12:34:43;;;;;;;;;;;21.40;97.00;;;;;;5052589;28;20390;-76
2022/05/26 12:37:16;;;;;;;;;;;21.20;96.30;;;;;;5035695;28;19929;-74
2022/05/26 12:39:58;;;;;;;;;;;21.40;96.30;;;;;;5053691;28;19921;-73
2022/05/26 12:42:43;;;;;;;;;;;21.60;96.30;;;;;;5037727;28;20043;-73
2022/05/26 12:45:15;;;;;;;;;;;21.20;96.50;;;;;;5050590;28;19972;-73
2022/05/26 12:47:44;;;;;;;;;;;21.00;97.30;;;;;;5034984;28;20016;-73
2022/05/26 12:50:14;;;;;;;;;;;20.90;97.80;;;;;;5051371;28;19951;-73
2022/05/26 12:52:45;;;;;;;;;;;20.50;98.20;;;;;;5052324;28;20275;-73
2022/05/26 12:55:26;;;;;;;;;;;20.50;98.60;;;;;;5053138;28;20232;-73
2022/05/26 12:58:03;;;;;;;;;;;20.00;99.70;;;;;;5053397;28;20624;-73
2022/05/26 13:00:28;;;;;;;;;;;20.20;99.40;;;;;;5034332;28;19936;-73
2022/05/26 13:02:57;;;;;;;;;;;20.30;99.40;;;;;;5035718;28;19928;-73
2022/05/26 13:05:25;;;;;;;;;;;20.20;99.70;;;;;;5035297;28;19929;-74
2022/05/26 13:07:53;;;;;;;;;;;20.20;98.40;;;;;;5035459;28;19944;-73
2022/05/26 13:10:23;;;;;;;;;;;20.20;98.40;;;;;;5035531;28;20007;-73
2022/05/26 13:12:48;;;;;;;;;;;20.30;99.60;;;;;;5034852;28;20407;-72
2022/05/26 13:15:20;;;;;;;;;;;20.20;99.20;;;;;;5035204;28;19924;-73
2022/05/26 13:17:48;;;;;;;;;;;19.90;99.60;;;;;;5052997;28;19921;-73
2022/05/26 13:20:21;;;;;;;;;;;20.10;99.80;;;;;;5052621;28;19971;-73
2022/05/26 13:22:47;;;;;;;;;;;20.30;99.50;;;;;;5053258;28;19925;-73
2022/05/26 13:25:19;;;;;;;;;;;20.20;99.90;;;;;;5035137;28;19924;-73
2022/05/26 13:27:49;;;;;;;;;;;20.30;99.20;;;;;;5034775;28;19924;-73
2022/05/26 13:33:09;;;;;;;;;;;20.00;99.10;;;;;;5052764;28;19925;-72
2022/05/26 13:35:39;;;;;;;;;;;19.90;99.60;;;;;;5052446;28;19956;-72
2022/05/26 13:38:17;;;;;;;;;;;19.90;99.90;;;;;;5052731;28;19925;-72
2022/05/26 13:40:43;;;;;;;;;;;19.70;99.80;;;;;;5034048;28;20376;-72
2022/05/26 13:43:13;;;;;;;;;;;19.50;99.20;;;;;;5051911;28;20063;-72
2022/05/26 13:45:42;;;;;;;;;;;19.50;99.90;;;;;;5043546;28;19932;-72
2022/05/26 13:48:26;;;;;;;;;;;19.60;99.50;;;;;;5014522;28;20265;-72
2022/05/26 13:50:53;;;;;;;;;;;19.30;99.90;;;;;;5033032;28;19925;-72
2022/05/26 13:53:19;;;;;;;;;;;19.20;99.90;;;;;;5032545;28;19925;-72
2022/05/26 13:55:45;;;;;;;;;;;19.00;99.90;;;;;;5014318;28;19959;-72
2022/05/26 13:58:10;;;;;;;;;;;19.00;99.90;;;;;;5032227;28;20297;-72
2022/05/26 14:00:39;;;;;;;;;;;18.80;99.90;;;;;;5032633;28;19929;-72
2022/05/26 14:03:24;;;;;;;;;;;18.80;99.90;;;;;;5031160;28;19956;-72
2022/05/26 14:05:57;;;;;;;;;;;18.60;99.90;;;;;;5014554;28;20357;-72
2022/05/26 14:08:26;;;;;;;;;;;18.40;99.90;;;;;;5032434;28;19936;-71
2022/05/26 14:10:52;;;;;;;;;;;18.50;99.90;;;;;;5036171;28;20399;-71
2022/05/26 14:13:18;;;;;;;;;;;18.50;99.90;;;;;;5018258;28;19925;-72
2022/05/26 14:15:54;;;;;;;;;;;18.40;99.90;;;;;;5031703;28;20402;-73
2022/05/26 14:18:25;;;;;;;;;;;18.40;99.90;;;;;;5014407;28;19929;-72
2022/05/26 14:20:55;;;;;;;;;;;18.20;99.90;;;;;;5032058;28;19925;-72
2022/05/26 14:23:21;;;;;;;;;;;18.10;99.90;;;;;;5031578;28;19925;-72
2022/05/26 14:25:57;;;;;;;;;;;17.90;99.90;;;;;;5032475;28;19936;-72
2022/05/26 14:28:37;;;;;;;;;;;18.00;99.90;;;;;;5014180;28;19933;-72
2022/05/26 14:31:04;;;;;;;;;;;17.50;99.90;;;;;;5013607;28;19960;-72
2022/05/26 14:33:31;;;;;;;;;;;17.50;99.90;;;;;;5014500;28;19925;-72
2022/05/26 14:35:57;;;;;;;;;;;17.60;99.90;;;;;;5014889;28;20416;-72
2022/05/26 14:38:22;;;;;;;;;;;17.50;99.90;;;;;;5013611;28;19925;-72
2022/05/26 14:40:48;;;;;;;;;;;17.50;99.90;;;;;;5031876;28;20324;-72
2022/05/26 14:43:21;;;;;;;;;;;17.50;99.90;;;;;;5013789;28;19932;-73
2022/05/26 14:45:47;;;;;;;;;;;17.60;99.90;;;;;;5013816;28;19925;-72
2022/05/26 14:48:12;;;;;;;;;;;17.40;99.90;;;;;;5031657;28;19935;-72
2022/05/26 14:50:38;;;;;;;;;;;17.20;99.90;;;;;;5032391;28;19926;-73
2022/05/26 14:53:08;;;;;;;;;;;17.20;99.90;;;;;;5013494;28;19925;-72
2022/05/26 14:55:37;;;;;;;;;;;17.10;99.90;;;;;;5014445;28;19925;-72
2022/05/26 14:58:05;;;;;;;;;;;17.10;99.90;;;;;;5033951;28;19952;-72
2022/05/26 15:00:37;;;;;;;;;;;17.10;99.90;;;;;;5018249;28;20040;-72
2022/05/26 15:03:03;;;;;;;;;;;17.20;99.90;;;;;;5017393;28;19964;-71
2022/05/26 15:05:29;;;;;;;;;;;17.30;99.90;;;;;;5035275;28;19991;-71
2022/05/26 15:07:54;;;;;;;;;;;17.30;99.90;;;;;;5017776;28;19925;-71
2022/05/26 15:10:20;;;;;;;;;;;17.30;99.90;;;;;;5017576;28;19932;-72
2022/05/26 15:12:46;;;;;;;;;;;17.30;99.90;;;;;;5017605;28;20352;-72
2022/05/26 15:15:13;;;;;;;;;;;17.30;99.90;;;;;;5017170;28;20408;-72